METAR AND TAF INFORMATION
METAR FOR DTTJ
ADDS - METARS form results

(1455 UTC 20 November 2019)
Data provider http://aviationweather.gov/metar/data/
 
METAR text: DTTJ 201430Z 01005KT 340V050 9999 FEW026 19/05 Q1016 NOSIG
Conditions at: DTTJ (DJERBA MELLITA , TN) observed 1430 UTC 20 November 2019
Temperature: 19.0°C (66°F)
Dewpoint: 5.0°C (41°F) [RH = 40%]
Pressure (altimeter): 30.00 inches Hg (1016.0 mb)
Winds: from the N (10 degrees) at 6 MPH (5 knots; 2.6 m/s)
Visibility: 6 or more miles (10+ km)
Ceiling: at least 12,000 feet AGL
Clouds: few clouds at 2600 feet AGL
Weather: no significant weather observed at this time

METAR text: DTTJ 201400Z 01006KT 340V080 9999 FEW026 19/06 Q1017 NOSIG
Conditions at: DTTJ (DJERBA MELLITA , TN) observed 1400 UTC 20 November 2019
Temperature: 19.0°C (66°F)
Dewpoint: 6.0°C (43°F) [RH = 43%]
Pressure (altimeter): 30.03 inches Hg (1017.0 mb)
Winds: from the N (10 degrees) at 7 MPH (6 knots; 3.1 m/s)
Visibility: 6 or more miles (10+ km)
Ceiling: at least 12,000 feet AGL
Clouds: few clouds at 2600 feet AGL
Weather: no significant weather observed at this time

Forecast for: DTTJ (DJERBA MELLITA , TN)
Text: TAF DTTJ 201100Z 2012/2112 35004KT 9999 SCT026
Forecast period: 1200 to 1600 UTC 20 November 2019
Forecast type: FROM: standard forecast or significant change
Winds: from the N (350 degrees) at 5 MPH (4 knots; 2.1 m/s)
Visibility: 6 or more miles 10+ km)
Ceiling: at least 12,000 feet AGL
Clouds: scattered clouds at 2600 feet AGL
Weather: no significant weather forecast for this period
Text: BECMG 2016/2018 11007KT
Forecast period: 1600 UTC 20 November 2019 to 0200 UTC 21 November 2019
Forecast type: BECOMING: Conditions expected to become as follows by 1800 UTC 20 November 2019
Winds: from the ESE (110 degrees) at 8 MPH (7 knots; 3.6 m/s)
Visibility: 6 or more miles 10+ km)
Ceiling: at least 12,000 feet AGL
Clouds: scattered clouds at 2600 feet AGL
Weather: no significant weather forecast for this period
Text: BECMG 2102/2104 26010KT
Forecast period: 0200 to 1200 UTC 21 November 2019
Forecast type: BECOMING: Conditions expected to become as follows by 0400 UTC 21 November 2019
Winds: from the W (260 degrees) at 12 MPH (10 knots; 5.1 m/s)
Visibility: 6 or more miles 10+ km)
Ceiling: at least 12,000 feet AGL
Clouds: scattered clouds at 2600 feet AGL
Weather: no significant weather forecast for this period

 AIRPORT MAP

 RUNWAY INFORMATION
Runway 09 Runway length 10171 ft Runway width 148 ft
Runway elevation 9 ft Runway displaced threshold 0 ft Runway heading 88
Runway 27 Runway length 10171 ft Runway width 148 ft
Runway elevation 18 ft Runway displaced threshold 0 ft Runway heading 268

 AIRPORT FREQUENCIES
Type APP Name DJERBA APP Frequency 120.3 MHZ
Type TWR Name DJERBA TWR Frequency 118.15 MHZ

 AIRPORT NEAR NAVIGATION AIDS
Type VOR-DME Name Djerba Frequency 112200 KHZ



Powered by Virtual Airlines Manager [v2.6.2]